Time;durP1;ratioP1;P1;durP2;ratioP2;P2;SDS_P1;SDS_P2;PMS_P1;PMS_P2;Temp;Humidity;BMP_temperature;BMP_pressure;BME280_temperature;BME280_humidity;BME280_pressure;Samples;Min_cycle;Max_cycle;Signal;HPM_P1;HPM_P2
2024/04/19 00:01:49;;;;;;;4.70;2.45;;;5.40;99.90;;;;;;5264969;27;19994;-71
2024/04/19 00:04:14;;;;;;;5.47;3.35;;;5.40;99.90;;;;;;5269085;27;20002;-72
2024/04/19 00:06:40;;;;;;;3.28;2.53;;;5.40;99.90;;;;;;5245467;27;20003;-72
2024/04/19 00:09:06;;;;;;;6.75;3.25;;;5.40;99.90;;;;;;5267864;27;20014;-72
2024/04/19 00:11:32;;;;;;;12.07;3.20;;;5.40;99.90;;;;;;5269359;27;20657;-72
2024/04/19 00:13:57;;;;;;;6.85;3.17;;;5.50;99.90;;;;;;5264289;27;20002;-72
2024/04/19 00:16:25;;;;;;;6.07;3.75;;;5.50;99.90;;;;;;5248494;27;20007;-72
2024/04/19 00:18:51;;;;;;;9.25;3.33;;;5.40;99.90;;;;;;5253043;27;20007;-71
2024/04/19 00:21:17;;;;;;;8.98;3.40;;;5.50;99.90;;;;;;5262538;27;20006;-72
2024/04/19 00:23:42;;;;;;;8.65;3.88;;;5.50;99.90;;;;;;5263129;27;20462;-72
2024/04/19 00:26:08;;;;;;;5.72;3.38;;;5.50;99.90;;;;;;5243489;27;20007;-72
2024/04/19 00:28:34;;;;;;;5.00;2.60;;;5.40;99.90;;;;;;5261084;27;19998;-72
2024/04/19 00:30:59;;;;;;;8.85;3.70;;;5.40;99.90;;;;;;5252012;27;19999;-72
2024/04/19 00:33:25;;;;;;;6.05;2.72;;;5.40;99.90;;;;;;5272975;27;20443;-73
2024/04/19 00:35:51;;;;;;;5.38;2.78;;;5.40;99.90;;;;;;5259017;27;20479;-73
2024/04/19 00:38:16;;;;;;;6.63;3.33;;;5.40;99.90;;;;;;5264508;27;20039;-73
2024/04/19 00:40:42;;;;;;;6.18;3.00;;;5.40;99.90;;;;;;5272669;27;19998;-73
2024/04/19 00:43:08;;;;;;;8.70;3.00;;;5.40;99.90;;;;;;5261680;27;20423;-73
2024/04/19 00:45:35;;;;;;;3.30;2.25;;;5.40;99.90;;;;;;5225612;27;20098;-73
2024/04/19 00:48:18;;;;;;;6.38;2.85;;;5.30;99.90;;;;;;5254910;27;20007;-73
2024/04/19 00:50:46;;;;;;;3.47;2.58;;;5.30;99.90;;;;;;5244696;27;20003;-73
2024/04/19 00:53:21;;;;;;;6.75;2.90;;;5.40;99.90;;;;;;5262407;27;20367;-73
2024/04/19 00:55:49;;;;;;;4.75;2.53;;;5.30;99.90;;;;;;5258968;27;19998;-73
2024/04/19 00:58:17;;;;;;;7.28;3.22;;;5.40;99.90;;;;;;5258930;27;19999;-73
2024/04/19 01:00:43;;;;;;;9.50;3.85;;;5.30;99.90;;;;;;5268466;27;20018;-73
2024/04/19 01:03:12;;;;;;;5.57;2.85;;;5.30;99.90;;;;;;5259113;27;20007;-73
2024/04/19 01:05:38;;;;;;;4.40;2.92;;;5.30;99.90;;;;;;5243109;27;20086;-73
2024/04/19 01:08:05;;;;;;;7.72;4.25;;;5.30;99.90;;;;;;5242443;27;20002;-73
2024/04/19 01:10:31;;;;;;;9.38;3.35;;;5.40;99.90;;;;;;5252500;27;19994;-73
2024/04/19 01:12:58;;;;;;;8.40;3.72;;;5.40;99.90;;;;;;5272363;27;20002;-73
2024/04/19 01:15:24;;;;;;;5.90;2.97;;;5.40;99.90;;;;;;5260703;27;20467;-73
2024/04/19 01:17:50;;;;;;;5.55;2.85;;;5.40;99.90;;;;;;5264163;27;20014;-73
2024/04/19 01:20:16;;;;;;;6.43;2.88;;;5.40;99.90;;;;;;5266231;27;20002;-73
2024/04/19 01:22:45;;;;;;;4.75;2.72;;;5.40;99.90;;;;;;5262506;27;19995;-73
2024/04/19 01:25:27;;;;;;;3.88;2.17;;;5.50;99.90;;;;;;5258291;27;19998;-74
2024/04/19 01:27:53;;;;;;;6.03;2.58;;;5.40;99.90;;;;;;5248084;27;20011;-72
2024/04/19 01:30:20;;;;;;;4.95;2.95;;;5.50;99.90;;;;;;5288113;27;20003;-72
2024/04/19 01:32:45;;;;;;;6.28;2.92;;;5.50;99.90;;;;;;5254236;27;20504;-72
2024/04/19 01:35:11;;;;;;;6.47;2.55;;;5.50;99.90;;;;;;5264728;27;20054;-72
2024/04/19 01:37:37;;;;;;;6.70;3.42;;;5.50;99.90;;;;;;5248026;27;20006;-72
2024/04/19 01:40:03;;;;;;;6.00;3.40;;;5.50;99.90;;;;;;5260884;27;20015;-72
2024/04/19 01:42:28;;;;;;;7.07;2.85;;;5.50;99.90;;;;;;5274547;27;20009;-72
2024/04/19 01:44:56;;;;;;;6.55;2.67;;;5.50;99.90;;;;;;5252342;27;20003;-72
2024/04/19 01:47:21;;;;;;;4.20;2.42;;;5.50;99.90;;;;;;5242409;27;20026;-72
2024/04/19 01:49:47;;;;;;;4.30;2.75;;;5.50;99.90;;;;;;5263587;27;20063;-72
2024/04/19 01:52:13;;;;;;;4.97;2.33;;;5.50;99.90;;;;;;5261859;27;19999;-72
2024/04/19 01:54:39;;;;;;;5.05;2.78;;;5.60;99.90;;;;;;5277199;27;19995;-72
2024/04/19 01:57:05;;;;;;;4.50;2.45;;;5.60;99.90;;;;;;5257442;27;20003;-74
2024/04/19 01:59:31;;;;;;;6.05;2.67;;;5.60;99.90;;;;;;5274456;27;20476;-73
2024/04/19 02:01:56;;;;;;;4.50;2.40;;;5.60;99.90;;;;;;5275109;27;20077;-72
2024/04/19 02:04:22;;;;;;;4.95;2.47;;;5.60;99.90;;;;;;5276813;27;19994;-72
2024/04/19 02:06:48;;;;;;;7.50;2.47;;;5.70;99.90;;;;;;5268561;27;20359;-72
2024/04/19 02:09:14;;;;;;;4.57;2.10;;;5.70;99.90;;;;;;5266394;27;20014;-72
2024/04/19 02:11:39;;;;;;;5.80;3.08;;;5.70;99.90;;;;;;5268990;27;19999;-72
2024/04/19 02:14:05;;;;;;;4.55;2.45;;;5.80;99.90;;;;;;5276612;27;20053;-72
2024/04/19 02:16:31;;;;;;;5.97;3.08;;;5.80;99.90;;;;;;5276921;27;20077;-71
2024/04/19 02:18:57;;;;;;;3.22;1.85;;;5.70;99.90;;;;;;5253533;27;20073;-73
2024/04/19 02:21:27;;;;;;;4.45;2.47;;;5.70;99.90;;;;;;5268408;27;20002;-72
2024/04/19 02:23:54;;;;;;;3.45;1.80;;;5.70;99.90;;;;;;5262784;27;20014;-72
2024/04/19 02:26:20;;;;;;;5.40;2.55;;;5.70;99.90;;;;;;5229858;27;20002;-72
2024/04/19 02:31:30;;;;;;;5.10;2.00;;;5.70;99.90;;;;;;5272899;27;20018;-72
2024/04/19 02:33:56;;;;;;;7.93;2.45;;;5.70;99.90;;;;;;5246897;27;20538;-72
2024/04/19 02:36:22;;;;;;;3.47;2.03;;;5.70;99.90;;;;;;5268041;27;20069;-72
2024/04/19 02:38:47;;;;;;;5.20;1.90;;;5.70;99.90;;;;;;5274907;27;20333;-72
2024/04/19 02:41:13;;;;;;;4.38;2.22;;;5.70;99.90;;;;;;5268629;27;20031;-72
2024/04/19 02:43:39;;;;;;;3.72;1.52;;;5.70;99.90;;;;;;5269877;27;20460;-72
2024/04/19 02:46:05;;;;;;;2.80;1.80;;;5.70;99.90;;;;;;5242450;27;20333;-72
2024/04/19 02:48:32;;;;;;;3.45;1.50;;;5.70;99.90;;;;;;5261410;27;20009;-72
2024/04/19 02:50:58;;;;;;;2.58;1.67;;;5.80;99.90;;;;;;5260621;27;20082;-73
2024/04/19 02:53:24;;;;;;;5.00;2.83;;;5.80;99.90;;;;;;5260708;27;20017;-72
2024/04/19 02:55:51;;;;;;;3.95;2.17;;;5.70;99.90;;;;;;5258566;27;20006;-73
2024/04/19 02:58:17;;;;;;;5.07;2.70;;;5.70;99.90;;;;;;5242266;27;20007;-73
2024/04/19 03:00:43;;;;;;;11.43;2.28;;;5.70;99.90;;;;;;5260484;27;20315;-73
2024/04/19 03:03:10;;;;;;;3.10;1.60;;;5.70;99.90;;;;;;5248965;27;20085;-73
2024/04/19 03:05:36;;;;;;;5.00;1.58;;;5.70;99.90;;;;;;5240902;27;20708;-72
2024/04/19 03:08:03;;;;;;;4.40;2.33;;;5.70;99.90;;;;;;5274359;27;20018;-72
2024/04/19 03:10:29;;;;;;;3.50;2.03;;;5.70;99.90;;;;;;5277778;27;20468;-73
2024/04/19 03:12:54;;;;;;;3.95;1.98;;;5.80;99.90;;;;;;5250821;27;20080;-73
2024/04/19 03:15:20;;;;;;;3.72;1.75;;;5.80;99.90;;;;;;5262531;27;20000;-73
2024/04/19 03:17:46;;;;;;;5.13;1.70;;;5.90;99.90;;;;;;5256834;27;19999;-73
2024/04/19 03:20:12;;;;;;;3.08;1.48;;;5.90;99.90;;;;;;5268550;27;20455;-73
2024/04/19 03:22:37;;;;;;;2.63;1.42;;;6.00;99.90;;;;;;5259703;27;20018;-73
2024/04/19 03:25:04;;;;;;;2.15;1.30;;;6.00;99.90;;;;;;5251711;27;20007;-73
2024/04/19 03:27:29;;;;;;;5.85;2.38;;;6.10;99.90;;;;;;5269154;27;20366;-73
2024/04/19 03:29:56;;;;;;;4.57;2.05;;;6.20;99.90;;;;;;5253315;27;19998;-73
2024/04/19 03:32:23;;;;;;;4.53;1.80;;;6.20;99.90;;;;;;5302679;27;20013;-73
2024/04/19 03:34:49;;;;;;;4.28;1.50;;;6.20;99.90;;;;;;5297610;27;20064;-73
2024/04/19 03:37:15;;;;;;;1.50;1.00;;;6.30;99.90;;;;;;5287224;27;20076;-73
2024/04/19 03:39:42;;;;;;;1.95;1.27;;;6.30;99.90;;;;;;5252486;27;20007;-73
2024/04/19 03:42:11;;;;;;;2.65;1.33;;;6.30;99.90;;;;;;5244669;27;20003;-73
2024/04/19 03:47:27;;;;;;;2.97;1.43;;;6.40;99.90;;;;;;5272298;27;20561;-73
2024/04/19 03:49:53;;;;;;;2.20;1.33;;;6.30;99.90;;;;;;5267699;27;20226;-72
2024/04/19 03:52:18;;;;;;;2.03;1.20;;;6.30;99.90;;;;;;5275753;27;20013;-73
2024/04/19 03:54:44;;;;;;;2.88;1.48;;;6.40;99.90;;;;;;5271211;27;20008;-72
2024/04/19 03:57:10;;;;;;;3.22;1.60;;;6.30;99.90;;;;;;5262162;27;20670;-72
2024/04/19 03:59:36;;;;;;;6.53;1.92;;;6.30;99.90;;;;;;5267948;27;20081;-72
2024/04/19 04:02:02;;;;;;;5.10;1.15;;;6.20;99.90;;;;;;5266334;27;20002;-72
2024/04/19 04:04:28;;;;;;;3.33;1.90;;;6.20;99.90;;;;;;5258852;27;20047;-73
2024/04/19 04:06:54;;;;;;;5.15;2.00;;;6.30;99.90;;;;;;5265747;27;20080;-74
2024/04/19 04:09:20;;;;;;;2.78;1.50;;;6.20;99.90;;;;;;5265290;27;20010;-72
2024/04/19 04:11:45;;;;;;;2.03;1.20;;;6.30;99.90;;;;;;5276813;27;20016;-72
2024/04/19 04:14:11;;;;;;;4.18;1.15;;;6.30;99.90;;;;;;5271583;27;19998;-73
2024/04/19 04:16:37;;;;;;;2.90;1.45;;;6.40;99.90;;;;;;5264920;27;19998;-73
2024/04/19 04:19:03;;;;;;;3.30;1.13;;;6.40;99.90;;;;;;5252834;27;20003;-73
2024/04/19 04:21:29;;;;;;;4.60;1.45;;;6.40;99.90;;;;;;5277223;27;20002;-73
2024/04/19 04:23:55;;;;;;;3.75;1.90;;;6.50;99.90;;;;;;5275918;27;20347;-72
2024/04/19 04:26:20;;;;;;;2.72;1.63;;;6.50;99.90;;;;;;5275599;27;20002;-73
2024/04/19 04:28:46;;;;;;;4.20;1.48;;;6.50;99.90;;;;;;5271112;27;20017;-72
2024/04/19 04:31:12;;;;;;;4.03;1.58;;;6.50;99.90;;;;;;5273894;27;20002;-72
2024/04/19 04:33:38;;;;;;;12.82;3.55;;;6.50;99.90;;;;;;5256942;27;20117;-72
2024/04/19 04:36:04;;;;;;;2.55;1.48;;;6.60;99.90;;;;;;5274032;27;20010;-73
2024/04/19 04:38:29;;;;;;;2.88;1.60;;;6.60;99.90;;;;;;5269444;27;20021;-73
2024/04/19 04:40:55;;;;;;;3.40;1.65;;;6.70;99.90;;;;;;5249519;27;20005;-72
2024/04/19 04:43:21;;;;;;;2.72;1.83;;;6.70;99.90;;;;;;5283299;27;20003;-72
2024/04/19 04:45:47;;;;;;;3.15;1.80;;;6.60;99.90;;;;;;5275243;27;20343;-72
2024/04/19 04:48:16;;;;;;;3.10;2.03;;;6.60;99.90;;;;;;5261959;27;20007;-73
2024/04/19 04:50:42;;;;;;;4.45;1.63;;;6.60;99.90;;;;;;5255404;27;20018;-71
2024/04/19 04:53:08;;;;;;;4.47;1.75;;;6.60;99.90;;;;;;5250743;27;20463;-70
2024/04/19 04:55:34;;;;;;;3.65;2.08;;;6.60;99.90;;;;;;5259858;27;20002;-65
2024/04/19 04:58:00;;;;;;;3.88;1.90;;;6.60;99.90;;;;;;5262995;27;20351;-64
2024/04/19 05:00:28;;;;;;;3.75;1.95;;;6.80;99.90;;;;;;5267078;27;19999;-64
2024/04/19 05:02:59;;;;;;;2.88;1.92;;;6.80;99.90;;;;;;5274648;27;20087;-64
2024/04/19 05:05:25;;;;;;;2.83;1.85;;;6.90;99.90;;;;;;5271416;27;20018;-64
2024/04/19 05:07:52;;;;;;;2.85;1.90;;;7.00;99.90;;;;;;5273110;27;20022;-71
2024/04/19 05:10:19;;;;;;;3.15;2.80;;;7.10;99.90;;;;;;5255502;27;20452;-71
2024/04/19 05:12:45;;;;;;;3.00;1.50;;;7.10;99.90;;;;;;5265760;27;20017;-71
2024/04/19 05:15:11;;;;;;;2.13;1.30;;;6.90;99.90;;;;;;5267497;27;20459;-72
2024/04/19 05:17:37;;;;;;;3.50;1.77;;;7.00;99.90;;;;;;5233225;27;20022;-71
2024/04/19 05:20:03;;;;;;;3.40;1.95;;;7.00;99.90;;;;;;5277876;27;20318;-71
2024/04/19 05:22:29;;;;;;;4.32;1.98;;;7.00;99.90;;;;;;5278690;27;20076;-70
2024/04/19 05:24:55;;;;;;;3.47;2.25;;;7.00;99.90;;;;;;5271657;27;20084;-71
2024/04/19 05:27:20;;;;;;;3.40;2.05;;;7.00;99.90;;;;;;5277155;27;20006;-72
2024/04/19 05:29:46;;;;;;;2.58;1.67;;;6.90;99.90;;;;;;5241473;27;20013;-71
2024/04/19 05:32:12;;;;;;;2.60;1.73;;;6.80;99.90;;;;;;5275710;27;20015;-71
2024/04/19 05:34:38;;;;;;;3.38;2.00;;;6.80;99.90;;;;;;5269402;27;20443;-71
2024/04/19 05:37:04;;;;;;;3.15;1.90;;;6.80;99.90;;;;;;5262749;27;20010;-71
2024/04/19 05:39:29;;;;;;;4.90;2.30;;;6.90;99.90;;;;;;5261986;27;20400;-72
2024/04/19 05:41:57;;;;;;;2.83;1.73;;;6.90;99.90;;;;;;5265278;27;20341;-74
2024/04/19 05:44:22;;;;;;;4.30;2.78;;;6.80;99.90;;;;;;5272450;27;20292;-72
2024/04/19 05:46:48;;;;;;;3.38;1.73;;;6.80;99.90;;;;;;5254462;27;20003;-72
2024/04/19 05:49:14;;;;;;;3.92;2.15;;;6.90;99.90;;;;;;5283986;27;20002;-71
2024/04/19 05:51:40;;;;;;;14.38;3.45;;;6.80;99.90;;;;;;5263514;27;20072;-71
2024/04/19 05:54:06;;;;;;;6.15;2.42;;;6.80;99.90;;;;;;5272418;27;20026;-70
2024/04/19 05:56:31;;;;;;;4.22;2.25;;;6.70;99.90;;;;;;5256125;27;20074;-70
2024/04/19 05:58:57;;;;;;;3.50;2.10;;;6.70;99.90;;;;;;5260059;27;20006;-71
2024/04/19 06:01:24;;;;;;;3.30;1.63;;;6.70;99.90;;;;;;5261817;27;20003;-72
2024/04/19 06:03:51;;;;;;;4.07;2.45;;;6.70;99.90;;;;;;5267377;27;19995;-70
2024/04/19 06:06:17;;;;;;;3.35;2.53;;;6.70;99.90;;;;;;5262632;27;20051;-71
2024/04/19 06:08:43;;;;;;;5.20;2.15;;;6.80;99.90;;;;;;5260864;27;20456;-72
2024/04/19 06:11:09;;;;;;;3.15;1.90;;;6.70;99.90;;;;;;5254369;27;20074;-69
2024/04/19 06:13:34;;;;;;;3.17;2.05;;;6.70;99.90;;;;;;5250133;27;20455;-70
2024/04/19 06:16:00;;;;;;;4.13;2.50;;;6.60;99.90;;;;;;5267757;27;20029;-71
2024/04/19 06:18:26;;;;;;;3.75;2.47;;;6.60;99.90;;;;;;5257076;27;19999;-73
2024/04/19 06:20:51;;;;;;;3.22;2.05;;;6.50;99.90;;;;;;5261128;27;20021;-71
2024/04/19 06:23:17;;;;;;;3.33;1.40;;;6.50;99.90;;;;;;5261117;27;20006;-71
2024/04/19 06:25:43;;;;;;;2.10;1.58;;;6.50;99.90;;;;;;5273756;27;20085;-71
2024/04/19 06:28:09;;;;;;;2.53;1.48;;;6.40;99.90;;;;;;5268296;27;20340;-71
2024/04/19 06:30:34;;;;;;;2.88;1.45;;;6.40;99.90;;;;;;5273655;27;20013;-70
2024/04/19 06:33:00;;;;;;;2.78;1.52;;;6.40;99.90;;;;;;5268271;27;20071;-69
2024/04/19 06:35:26;;;;;;;3.40;2.45;;;6.40;99.90;;;;;;5288976;27;20437;-69
2024/04/19 06:37:51;;;;;;;6.40;2.13;;;6.40;99.90;;;;;;5266415;27;20006;-69
2024/04/19 06:40:17;;;;;;;3.90;2.28;;;6.40;99.90;;;;;;5277199;27;20010;-69
2024/04/19 06:42:43;;;;;;;4.28;1.80;;;6.30;99.90;;;;;;5268000;27;20010;-70
2024/04/19 06:45:09;;;;;;;2.90;1.48;;;6.30;99.90;;;;;;5276801;27;20013;-69
2024/04/19 06:47:34;;;;;;;2.63;1.88;;;6.20;99.90;;;;;;5245793;27;20022;-69
2024/04/19 06:50:00;;;;;;;13.77;2.78;;;6.30;99.90;;;;;;5254343;27;20406;-70
2024/04/19 06:52:26;;;;;;;8.73;2.15;;;6.20;99.90;;;;;;5293514;27;19998;-71
2024/04/19 06:54:52;;;;;;;3.15;1.50;;;6.20;99.90;;;;;;5254115;27;20013;-71
2024/04/19 06:57:21;;;;;;;2.30;2.00;;;6.10;99.90;;;;;;5267654;27;20457;-70
2024/04/19 06:59:46;;;;;;;3.67;1.90;;;6.10;99.90;;;;;;5267218;27;20460;-70
2024/04/19 07:02:13;;;;;;;5.65;2.88;;;6.10;99.90;;;;;;5268080;27;20006;-70
2024/04/19 07:04:39;;;;;;;2.65;1.30;;;6.10;99.90;;;;;;5249341;27;20080;-71
2024/04/19 07:07:05;;;;;;;4.15;2.45;;;6.00;99.90;;;;;;5254759;27;20034;-71
2024/04/19 07:09:31;;;;;;;4.75;2.75;;;6.00;99.90;;;;;;5281955;27;20747;-71
2024/04/19 07:11:57;;;;;;;6.32;2.85;;;6.00;99.90;;;;;;5254196;27;20010;-71
2024/04/19 07:14:23;;;;;;;39.38;5.20;;;6.00;99.90;;;;;;5272876;27;20058;-70
2024/04/19 07:16:49;;;;;;;5.38;2.88;;;5.90;99.90;;;;;;5239756;27;19999;-71
2024/04/19 07:19:15;;;;;;;21.40;2.72;;;5.90;99.90;;;;;;5316123;26;20446;-71
2024/04/19 07:21:41;;;;;;;2.05;1.25;;;6.00;99.90;;;;;;5308369;26;20076;-71
2024/04/19 07:24:07;;;;;;;3.00;2.03;;;6.00;99.90;;;;;;5289196;26;20014;-71
2024/04/19 07:26:34;;;;;;;5.03;2.67;;;5.90;99.90;;;;;;5288654;27;20075;-71
2024/04/19 07:29:00;;;;;;;7.47;3.13;;;5.90;99.90;;;;;;5290373;27;20014;-71
2024/04/19 07:31:26;;;;;;;4.30;2.85;;;5.90;99.90;;;;;;5309750;26;20021;-71
2024/04/19 07:33:52;;;;;;;2.33;1.52;;;5.90;99.90;;;;;;5283692;27;20002;-71
2024/04/19 07:36:18;;;;;;;6.93;2.83;;;5.90;99.90;;;;;;5295684;27;20002;-70
2024/04/19 07:38:44;;;;;;;14.88;1.63;;;5.90;99.90;;;;;;5283832;27;20005;-70
2024/04/19 07:41:10;;;;;;;1.40;0.95;;;5.90;99.90;;;;;;5294151;26;20013;-69
2024/04/19 07:43:36;;;;;;;2.33;1.35;;;5.90;99.90;;;;;;5269734;27;19994;-70
2024/04/19 07:46:02;;;;;;;1.80;1.17;;;6.00;99.90;;;;;;5299114;27;20010;-69
2024/04/19 07:48:28;;;;;;;1.55;1.25;;;6.00;99.90;;;;;;5293779;27;20014;-70
2024/04/19 07:50:54;;;;;;;2.63;1.02;;;6.10;99.90;;;;;;5298816;27;20080;-70
2024/04/19 07:53:22;;;;;;;3.83;1.65;;;6.10;99.90;;;;;;5281306;27;20462;-70
2024/04/19 07:55:48;;;;;;;3.63;1.88;;;6.10;99.90;;;;;;5283680;27;20470;-70
2024/04/19 07:58:14;;;;;;;1.50;1.17;;;6.10;99.90;;;;;;5283250;27;20144;-70
2024/04/19 08:00:41;;;;;;;1.27;0.98;;;6.10;99.90;;;;;;5279257;27;20017;-70
2024/04/19 08:03:07;;;;;;;3.08;1.92;;;6.10;99.90;;;;;;5291070;26;19997;-73
2024/04/19 08:05:33;;;;;;;1.17;0.90;;;6.20;99.90;;;;;;5295979;27;20451;-72
2024/04/19 08:07:59;;;;;;;4.10;1.75;;;6.20;99.90;;;;;;5290170;27;20592;-73
2024/04/19 08:10:27;;;;;;;3.28;0.80;;;6.20;99.90;;;;;;5306515;27;20001;-69
2024/04/19 08:12:53;;;;;;;2.55;1.75;;;6.20;99.90;;;;;;5299963;26;20009;-70
2024/04/19 08:15:19;;;;;;;1.17;0.90;;;6.20;99.90;;;;;;5291617;27;20017;-69
2024/04/19 08:17:45;;;;;;;20.35;4.80;;;6.20;99.90;;;;;;5248628;27;20333;-70
2024/04/19 08:20:11;;;;;;;38.33;5.88;;;6.30;99.90;;;;;;5303242;27;20038;-70
2024/04/19 08:22:37;;;;;;;3.25;1.25;;;6.30;99.90;;;;;;5299630;26;20172;-71
2024/04/19 08:25:04;;;;;;;4.32;1.02;;;6.30;99.90;;;;;;5307948;27;20005;-70
2024/04/19 08:27:29;;;;;;;2.45;1.88;;;6.30;99.90;;;;;;5278589;27;20002;-70
2024/04/19 08:29:55;;;;;;;2.17;1.23;;;6.30;99.90;;;;;;5309352;27;20001;-71
2024/04/19 08:32:23;;;;;;;6.95;1.45;;;6.20;99.90;;;;;;5287057;26;20457;-71
2024/04/19 08:34:54;;;;;;;6.05;2.15;;;6.20;99.90;;;;;;5273846;27;20019;-70
2024/04/19 08:37:21;;;;;;;15.25;4.13;;;6.20;99.90;;;;;;5279659;27;20002;-71
2024/04/19 08:39:50;;;;;;;3.17;1.20;;;6.20;99.90;;;;;;5294534;27;20477;-70
2024/04/19 08:42:17;;;;;;;2.08;1.58;;;6.10;99.90;;;;;;5292409;26;20033;-70
2024/04/19 08:44:48;;;;;;;2.35;1.25;;;6.10;99.90;;;;;;5293612;26;20435;-70
2024/04/19 08:47:18;;;;;;;2.28;1.25;;;6.10;99.90;;;;;;5283190;27;19998;-70
2024/04/19 08:49:46;;;;;;;2.40;1.17;;;6.10;99.90;;;;;;5293759;27;20012;-70
2024/04/19 08:52:14;;;;;;;8.60;1.90;;;6.10;99.90;;;;;;5298218;27;19994;-70
2024/04/19 08:54:42;;;;;;;2.63;1.30;;;6.20;99.90;;;;;;5273835;27;20161;-71
2024/04/19 08:57:08;;;;;;;2.28;1.38;;;6.20;99.90;;;;;;5291589;27;20092;-71
2024/04/19 08:59:36;;;;;;;4.10;1.75;;;6.20;99.90;;;;;;5301879;27;20006;-71
2024/04/19 09:02:02;;;;;;;3.13;1.23;;;6.20;99.90;;;;;;5296743;27;20416;-71
2024/04/19 09:04:28;;;;;;;1.40;0.95;;;6.20;99.90;;;;;;5307445;26;20013;-71
2024/04/19 09:06:54;;;;;;;6.53;1.58;;;6.20;99.90;;;;;;5289441;27;20025;-71
2024/04/19 09:09:20;;;;;;;1.98;1.05;;;6.20;99.90;;;;;;5282885;27;20003;-72
2024/04/19 09:11:48;;;;;;;0.90;0.50;;;6.20;99.90;;;;;;5263126;27;20005;-71
2024/04/19 09:14:14;;;;;;;5.28;1.23;;;6.20;99.90;;;;;;5274936;27;20084;-71
2024/04/19 09:16:41;;;;;;;1.75;1.33;;;6.30;99.90;;;;;;5261420;26;20081;-72
2024/04/19 09:19:07;;;;;;;2.67;0.93;;;6.30;99.90;;;;;;5260473;27;20018;-69
2024/04/19 09:21:33;;;;;;;0.55;0.55;;;6.30;99.90;;;;;;5243244;27;20014;-70
2024/04/19 09:23:59;;;;;;;1.35;0.70;;;6.30;99.90;;;;;;5273801;27;20007;-71
2024/04/19 09:26:26;;;;;;;2.38;1.15;;;6.30;99.90;;;;;;5274185;27;20010;-71
2024/04/19 09:28:54;;;;;;;4.95;2.75;;;6.30;99.90;;;;;;5273666;27;20076;-70
2024/04/19 09:31:20;;;;;;;4.88;1.77;;;6.30;99.90;;;;;;5301163;27;20002;-73
2024/04/19 09:33:48;;;;;;;0.88;0.80;;;6.30;99.90;;;;;;5294117;26;20013;-71
2024/04/19 09:36:20;;;;;;;1.83;1.02;;;6.30;99.90;;;;;;5294552;27;20003;-70
2024/04/19 09:38:46;;;;;;;4.88;1.33;;;6.30;99.90;;;;;;5305904;27;20002;-72
2024/04/19 09:41:17;;;;;;;2.25;1.58;;;6.30;99.90;;;;;;5309844;27;20045;-73
2024/04/19 09:43:50;;;;;;;3.10;1.85;;;6.30;99.90;;;;;;5301335;26;20021;-74
2024/04/19 09:46:29;;;;;;;2.67;1.45;;;6.30;99.90;;;;;;5281759;27;19998;-71
2024/04/19 09:49:02;;;;;;;3.53;1.40;;;6.30;99.90;;;;;;5282316;26;20327;-71
2024/04/19 09:51:37;;;;;;;2.97;2.00;;;6.40;99.90;;;;;;5281573;27;20001;-71
2024/04/19 09:54:10;;;;;;;4.13;1.40;;;6.40;99.90;;;;;;5316378;26;20002;-71
2024/04/19 09:56:58;;;;;;;2.28;1.35;;;6.40;99.90;;;;;;5304768;27;20001;-73
2024/04/19 09:59:25;;;;;;;1.10;1.00;;;6.40;99.90;;;;;;5292829;27;20010;-71
2024/04/19 10:01:51;;;;;;;3.22;1.35;;;6.40;99.90;;;;;;5301683;27;20390;-70
2024/04/19 10:04:19;;;;;;;2.63;1.10;;;6.40;99.90;;;;;;5303457;26;20007;-70
2024/04/19 10:06:47;;;;;;;1.13;0.90;;;6.40;99.90;;;;;;5288921;27;20012;-70
2024/04/19 10:09:17;;;;;;;1.48;1.08;;;6.40;99.90;;;;;;5291894;27;20348;-70
2024/04/19 10:11:46;;;;;;;1.42;1.30;;;6.40;99.90;;;;;;5280698;27;20446;-70
2024/04/19 10:14:12;;;;;;;3.17;1.52;;;6.40;99.90;;;;;;5289885;26;20474;-70
2024/04/19 10:16:40;;;;;;;3.05;1.55;;;6.40;99.90;;;;;;5307123;27;19998;-70
2024/04/19 10:19:06;;;;;;;4.40;2.28;;;6.40;99.90;;;;;;5303320;27;20005;-73
2024/04/19 10:21:36;;;;;;;1.85;1.42;;;6.40;99.90;;;;;;5309490;27;20009;-70
2024/04/19 10:24:22;;;;;;;1.95;0.95;;;6.40;99.90;;;;;;5287053;26;20323;-71
2024/04/19 10:26:50;;;;;;;1.85;1.23;;;6.50;99.90;;;;;;5288864;27;20038;-70
2024/04/19 10:29:30;;;;;;;2.70;1.08;;;6.40;99.90;;;;;;5303340;26;20033;-70
2024/04/19 10:31:57;;;;;;;1.95;1.52;;;6.40;99.90;;;;;;5266760;27;20006;-72
2024/04/19 10:34:23;;;;;;;1.50;0.93;;;6.50;99.90;;;;;;5290826;27;20006;-71
2024/04/19 10:36:52;;;;;;;1.65;1.27;;;6.50;99.90;;;;;;5293819;27;20006;-71
2024/04/19 10:39:20;;;;;;;2.50;1.70;;;6.50;99.90;;;;;;5291726;27;20017;-72
2024/04/19 10:41:49;;;;;;;3.35;1.40;;;6.40;99.90;;;;;;5306282;27;20465;-72
2024/04/19 10:44:15;;;;;;;3.45;1.65;;;6.40;99.90;;;;;;5289436;26;20448;-72
2024/04/19 10:46:44;;;;;;;1.80;0.80;;;6.40;99.90;;;;;;5264919;27;20071;-72
2024/04/19 10:49:10;;;;;;;3.47;1.42;;;6.40;99.90;;;;;;5290161;26;20001;-72
2024/04/19 10:51:38;;;;;;;0.57;0.45;;;6.40;99.90;;;;;;5304154;27;20010;-71
2024/04/19 10:54:05;;;;;;;2.90;1.42;;;6.40;99.90;;;;;;5317829;26;20021;-71
2024/04/19 10:56:31;;;;;;;1.70;1.35;;;6.40;99.90;;;;;;5292313;27;20001;-71
2024/04/19 10:58:57;;;;;;;4.10;1.65;;;6.40;99.90;;;;;;5299014;27;20010;-71
2024/04/19 11:01:23;;;;;;;2.17;1.23;;;6.40;99.90;;;;;;5308556;27;20411;-72
2024/04/19 11:03:50;;;;;;;3.25;1.13;;;6.40;99.90;;;;;;5299912;26;20042;-72
2024/04/19 11:06:17;;;;;;;2.78;1.67;;;6.40;99.90;;;;;;5295720;27;20010;-72
2024/04/19 11:08:44;;;;;;;1.73;0.95;;;6.40;99.90;;;;;;5328840;26;20006;-72
2024/04/19 11:11:10;;;;;;;2.13;0.98;;;6.40;99.90;;;;;;5273830;27;19998;-72
2024/04/19 11:13:37;;;;;;;2.10;1.15;;;6.40;99.90;;;;;;5293560;26;20053;-72
2024/04/19 11:16:03;;;;;;;4.15;0.80;;;6.40;99.90;;;;;;5307582;27;20002;-72
2024/04/19 11:18:29;;;;;;;3.13;1.27;;;6.50;99.90;;;;;;5330693;26;20087;-72
2024/04/19 11:20:55;;;;;;;1.45;1.00;;;6.50;99.90;;;;;;5298138;27;20359;-72
2024/04/19 11:23:21;;;;;;;2.33;1.58;;;6.50;99.90;;;;;;5294218;26;20074;-72
2024/04/19 11:25:47;;;;;;;1.77;1.33;;;6.50;99.90;;;;;;5294757;27;20038;-73
2024/04/19 11:28:14;;;;;;;1.15;0.90;;;6.50;99.90;;;;;;5294805;26;20007;-72
2024/04/19 11:30:40;;;;;;;2.83;1.58;;;6.50;99.90;;;;;;5304446;27;20002;-72
2024/04/19 11:33:11;;;;;;;0.63;0.47;;;6.50;99.90;;;;;;5298686;26;20323;-72
2024/04/19 11:35:44;;;;;;;1.52;0.80;;;6.60;99.90;;;;;;5291212;27;20006;-72
2024/04/19 11:38:15;;;;;;;0.60;0.43;;;6.60;99.90;;;;;;5278313;27;20365;-72
2024/04/19 11:40:41;;;;;;;;;;;6.60;99.90;;;;;;5275339;27;20034;-72
2024/04/19 11:43:07;;;;;;;1.50;0.98;;;6.60;99.90;;;;;;5275942;27;19938;-72
2024/04/19 11:45:33;;;;;;;2.17;1.05;;;6.70;99.90;;;;;;5288816;27;20439;-73
2024/04/19 11:47:59;;;;;;;1.40;0.63;;;6.70;99.90;;;;;;5248086;27;19999;-72
2024/04/19 11:50:26;;;;;;;1.67;1.20;;;6.70;99.90;;;;;;5276786;27;20008;-72
2024/04/19 11:52:52;;;;;;;1.52;1.08;;;6.80;99.90;;;;;;5291204;27;20014;-73
2024/04/19 11:55:19;;;;;;;0.85;0.68;;;6.80;99.90;;;;;;5274994;27;20076;-73
2024/04/19 11:57:45;;;;;;;4.35;2.05;;;6.90;99.90;;;;;;5298048;27;20008;-73
2024/04/19 12:00:12;;;;;;;2.05;0.85;;;6.90;99.90;;;;;;5296219;26;19998;-73
2024/04/19 12:02:38;;;;;;;2.47;1.08;;;7.00;99.90;;;;;;5299363;26;20001;-73
2024/04/19 12:05:04;;;;;;;0.98;0.88;;;7.00;99.90;;;;;;5308827;27;20006;-74
2024/04/19 12:07:30;;;;;;;1.77;1.00;;;7.10;99.90;;;;;;5297526;27;20009;-71
2024/04/19 12:09:56;;;;;;;3.70;0.90;;;7.20;99.90;;;;;;5297028;27;20020;-71
2024/04/19 12:12:25;;;;;;;9.63;1.05;;;7.20;99.90;;;;;;5297729;26;20017;-67
2024/04/19 12:14:51;;;;;;;2.35;0.93;;;7.20;99.90;;;;;;5294275;27;19998;-68
2024/04/19 12:17:17;;;;;;;0.90;0.60;;;7.40;99.90;;;;;;5282540;26;20466;-72
2024/04/19 12:19:43;;;;;;;4.60;0.93;;;7.50;99.90;;;;;;5283881;27;20446;-72
2024/04/19 12:22:09;;;;;;;0.63;0.38;;;7.40;99.90;;;;;;5285646;27;20002;-71
2024/04/19 12:24:36;;;;;;;0.57;0.50;;;7.40;99.90;;;;;;5308181;26;20331;-72
2024/04/19 12:27:04;;;;;;;1.00;0.90;;;7.40;99.90;;;;;;5273098;27;20009;-71
2024/04/19 12:29:30;;;;;;;0.40;0.40;;;7.40;99.90;;;;;;5295632;26;19998;-71
2024/04/19 12:31:59;;;;;;;1.02;0.82;;;7.40;99.90;;;;;;5304079;26;20014;-71
2024/04/19 12:34:25;;;;;;;0.63;0.47;;;7.40;99.90;;;;;;5476810;21;20017;-68
2024/04/19 12:36:51;;;;;;;1.17;0.60;;;7.40;99.90;;;;;;5363484;26;19997;-69
2024/04/19 12:39:17;;;;;;;3.72;1.00;;;7.40;99.90;;;;;;5374485;26;20019;-69
2024/04/19 12:41:43;;;;;;;0.98;0.65;;;7.40;99.90;;;;;;5363025;26;20466;-68
2024/04/19 12:44:10;;;;;;;0.90;0.80;;;7.40;99.90;;;;;;5349127;26;20345;-69
2024/04/19 12:46:36;;;;;;;0.30;0.30;;;7.50;99.90;;;;;;5342243;26;20046;-70
2024/04/19 12:49:04;;;;;;;1.50;1.05;;;7.40;99.90;;;;;;5341041;26;20005;-69
2024/04/19 12:51:31;;;;;;;1.25;0.60;;;7.50;99.90;;;;;;5338707;26;20494;-70
2024/04/19 12:53:57;;;;;;;1.15;0.47;;;7.50;99.90;;;;;;5341319;26;20008;-69
2024/04/19 12:56:23;;;;;;;0.80;0.57;;;7.50;99.90;;;;;;5337804;26;20004;-69
2024/04/19 12:58:50;;;;;;;0.40;0.40;;;7.50;99.90;;;;;;5303146;26;20454;-69
2024/04/19 13:01:18;;;;;;;1.65;0.75;;;7.50;99.90;;;;;;5368968;26;20070;-69